sensor_id;sensor_type;location;lat;lon;timestamp;temperature;humidity
2539;DHT22;1280;49.760;9.664;2023-04-06T00:01:47;4.70;63.40
2539;DHT22;1280;49.760;9.664;2023-04-06T00:04:18;4.60;63.30
2539;DHT22;1280;49.760;9.664;2023-04-06T00:06:50;4.50;63.30
2539;DHT22;1280;49.760;9.664;2023-04-06T00:09:29;4.50;63.40
2539;DHT22;1280;49.760;9.664;2023-04-06T00:12:08;4.50;63.40
2539;DHT22;1280;49.760;9.664;2023-04-06T00:14:51;4.50;63.50
2539;DHT22;1280;49.760;9.664;2023-04-06T00:17:33;4.50;63.60
2539;DHT22;1280;49.760;9.664;2023-04-06T00:20:12;4.40;63.40
2539;DHT22;1280;49.760;9.664;2023-04-06T00:22:53;4.40;63.50
2539;DHT22;1280;49.760;9.664;2023-04-06T00:25:28;4.40;63.60
2539;DHT22;1280;49.760;9.664;2023-04-06T00:28:06;4.30;63.70
2539;DHT22;1280;49.760;9.664;2023-04-06T00:30:47;4.40;63.70
2539;DHT22;1280;49.760;9.664;2023-04-06T00:33:26;4.40;63.70
2539;DHT22;1280;49.760;9.664;2023-04-06T00:35:58;4.30;63.60
2539;DHT22;1280;49.760;9.664;2023-04-06T00:38:33;4.30;63.60
2539;DHT22;1280;49.760;9.664;2023-04-06T00:41:04;4.30;63.80
2539;DHT22;1280;49.760;9.664;2023-04-06T00:43:50;4.30;63.80
2539;DHT22;1280;49.760;9.664;2023-04-06T00:46:29;4.20;63.80
2539;DHT22;1280;49.760;9.664;2023-04-06T00:49:01;4.20;63.80
2539;DHT22;1280;49.760;9.664;2023-04-06T00:51:40;4.20;63.90
2539;DHT22;1280;49.760;9.664;2023-04-06T00:54:22;4.20;63.90
2539;DHT22;1280;49.760;9.664;2023-04-06T00:56:56;4.10;64.00
2539;DHT22;1280;49.760;9.664;2023-04-06T00:59:36;4.10;64.00
2539;DHT22;1280;49.760;9.664;2023-04-06T01:02:08;4.00;64.10
2539;DHT22;1280;49.760;9.664;2023-04-06T01:04:52;4.00;64.20
2539;DHT22;1280;49.760;9.664;2023-04-06T01:07:38;4.00;64.20
2539;DHT22;1280;49.760;9.664;2023-04-06T01:10:28;4.00;64.30
2539;DHT22;1280;49.760;9.664;2023-04-06T01:13:07;3.90;64.30
2539;DHT22;1280;49.760;9.664;2023-04-06T01:15:57;3.90;64.30
2539;DHT22;1280;49.760;9.664;2023-04-06T01:18:48;3.90;64.50
2539;DHT22;1280;49.760;9.664;2023-04-06T01:21:31;4.00;64.50
2539;DHT22;1280;49.760;9.664;2023-04-06T01:24:32;4.00;64.60
2539;DHT22;1280;49.760;9.664;2023-04-06T01:27:18;4.00;64.50
2539;DHT22;1280;49.760;9.664;2023-04-06T01:29:57;4.00;64.50
2539;DHT22;1280;49.760;9.664;2023-04-06T01:32:53;4.00;64.40
2539;DHT22;1280;49.760;9.664;2023-04-06T01:35:43;4.00;64.30
2539;DHT22;1280;49.760;9.664;2023-04-06T01:38:37;3.90;64.30
2539;DHT22;1280;49.760;9.664;2023-04-06T01:41:16;3.80;64.30
2539;DHT22;1280;49.760;9.664;2023-04-06T01:43:51;3.70;64.40
2539;DHT22;1280;49.760;9.664;2023-04-06T01:46:28;3.70;64.40
2539;DHT22;1280;49.760;9.664;2023-04-06T01:49:05;3.60;64.40
2539;DHT22;1280;49.760;9.664;2023-04-06T01:51:48;3.60;64.70
2539;DHT22;1280;49.760;9.664;2023-04-06T01:54:24;3.60;64.80
2539;DHT22;1280;49.760;9.664;2023-04-06T01:57:18;3.60;64.80
2539;DHT22;1280;49.760;9.664;2023-04-06T01:59:59;3.60;64.90
2539;DHT22;1280;49.760;9.664;2023-04-06T02:02:51;3.60;64.90
2539;DHT22;1280;49.760;9.664;2023-04-06T02:05:29;3.60;64.80
2539;DHT22;1280;49.760;9.664;2023-04-06T02:07:59;3.50;64.90
2539;DHT22;1280;49.760;9.664;2023-04-06T02:10:35;3.50;64.90
2539;DHT22;1280;49.760;9.664;2023-04-06T02:13:28;3.50;64.90
2539;DHT22;1280;49.760;9.664;2023-04-06T02:16:07;3.50;65.00
2539;DHT22;1280;49.760;9.664;2023-04-06T02:18:37;3.50;65.00
2539;DHT22;1280;49.760;9.664;2023-04-06T02:21:17;3.40;65.00
2539;DHT22;1280;49.760;9.664;2023-04-06T02:23:47;3.40;65.00
2539;DHT22;1280;49.760;9.664;2023-04-06T02:26:19;3.40;65.00
2539;DHT22;1280;49.760;9.664;2023-04-06T02:28:56;3.40;65.10
2539;DHT22;1280;49.760;9.664;2023-04-06T02:31:29;3.50;65.20
2539;DHT22;1280;49.760;9.664;2023-04-06T02:34:05;3.50;65.20
2539;DHT22;1280;49.760;9.664;2023-04-06T02:36:37;3.40;65.10
2539;DHT22;1280;49.760;9.664;2023-04-06T02:39:10;3.40;65.10
2539;DHT22;1280;49.760;9.664;2023-04-06T02:41:44;3.40;65.10
2539;DHT22;1280;49.760;9.664;2023-04-06T02:44:28;3.40;65.20
2539;DHT22;1280;49.760;9.664;2023-04-06T02:47:04;3.40;65.20
2539;DHT22;1280;49.760;9.664;2023-04-06T02:49:40;3.40;65.10
2539;DHT22;1280;49.760;9.664;2023-04-06T02:52:16;3.40;65.20
2539;DHT22;1280;49.760;9.664;2023-04-06T02:54:49;3.40;65.10
2539;DHT22;1280;49.760;9.664;2023-04-06T02:57:33;3.40;65.10
2539;DHT22;1280;49.760;9.664;2023-04-06T03:00:10;3.30;65.10
2539;DHT22;1280;49.760;9.664;2023-04-06T03:02:41;3.30;65.00
2539;DHT22;1280;49.760;9.664;2023-04-06T03:05:17;3.20;65.00
2539;DHT22;1280;49.760;9.664;2023-04-06T03:07:50;3.20;65.00
2539;DHT22;1280;49.760;9.664;2023-04-06T03:10:36;3.20;65.10
2539;DHT22;1280;49.760;9.664;2023-04-06T03:13:05;3.10;65.00
2539;DHT22;1280;49.760;9.664;2023-04-06T03:15:59;3.00;64.90
2539;DHT22;1280;49.760;9.664;2023-04-06T03:18:33;3.00;65.10
2539;DHT22;1280;49.760;9.664;2023-04-06T03:21:17;2.90;65.10
2539;DHT22;1280;49.760;9.664;2023-04-06T03:23:52;2.70;65.10
2539;DHT22;1280;49.760;9.664;2023-04-06T03:26:26;2.60;65.20
2539;DHT22;1280;49.760;9.664;2023-04-06T03:29:04;2.60;65.30
2539;DHT22;1280;49.760;9.664;2023-04-06T03:31:42;2.60;65.60
2539;DHT22;1280;49.760;9.664;2023-04-06T03:34:46;2.70;65.70
2539;DHT22;1280;49.760;9.664;2023-04-06T03:37:19;2.70;65.60
2539;DHT22;1280;49.760;9.664;2023-04-06T03:40:02;2.70;65.60
2539;DHT22;1280;49.760;9.664;2023-04-06T03:42:34;2.70;65.60
2539;DHT22;1280;49.760;9.664;2023-04-06T03:45:15;2.70;65.60
2539;DHT22;1280;49.760;9.664;2023-04-06T03:47:58;2.70;65.60
2539;DHT22;1280;49.760;9.664;2023-04-06T03:50:35;2.70;65.60
2539;DHT22;1280;49.760;9.664;2023-04-06T03:53:06;2.70;65.50
2539;DHT22;1280;49.760;9.664;2023-04-06T03:55:36;2.60;65.40
2539;DHT22;1280;49.760;9.664;2023-04-06T03:58:07;2.60;65.50
2539;DHT22;1280;49.760;9.664;2023-04-06T04:00:46;2.60;65.50
2539;DHT22;1280;49.760;9.664;2023-04-06T04:03:30;2.60;65.40
2539;DHT22;1280;49.760;9.664;2023-04-06T04:06:03;2.50;65.60
2539;DHT22;1280;49.760;9.664;2023-04-06T04:08:44;2.50;65.70
2539;DHT22;1280;49.760;9.664;2023-04-06T04:11:14;2.50;65.60
2539;DHT22;1280;49.760;9.664;2023-04-06T04:13:53;2.50;65.60
2539;DHT22;1280;49.760;9.664;2023-04-06T04:16:33;2.50;65.70
2539;DHT22;1280;49.760;9.664;2023-04-06T04:19:05;2.50;65.70
2539;DHT22;1280;49.760;9.664;2023-04-06T04:21:46;2.50;65.80
2539;DHT22;1280;49.760;9.664;2023-04-06T04:24:20;2.50;66.00
2539;DHT22;1280;49.760;9.664;2023-04-06T04:26:59;2.50;65.70
2539;DHT22;1280;49.760;9.664;2023-04-06T04:29:38;2.40;65.50
2539;DHT22;1280;49.760;9.664;2023-04-06T04:32:12;2.40;65.70
2539;DHT22;1280;49.760;9.664;2023-04-06T04:34:47;2.30;65.90
2539;DHT22;1280;49.760;9.664;2023-04-06T04:37:36;2.40;66.00
2539;DHT22;1280;49.760;9.664;2023-04-06T04:40:16;2.40;66.00
2539;DHT22;1280;49.760;9.664;2023-04-06T04:43:03;2.40;66.10
2539;DHT22;1280;49.760;9.664;2023-04-06T04:45:42;2.50;66.10
2539;DHT22;1280;49.760;9.664;2023-04-06T04:48:35;2.50;66.00
2539;DHT22;1280;49.760;9.664;2023-04-06T04:51:18;2.50;66.00
2539;DHT22;1280;49.760;9.664;2023-04-06T04:54:07;2.50;66.10
2539;DHT22;1280;49.760;9.664;2023-04-06T04:56:36;2.50;66.00
2539;DHT22;1280;49.760;9.664;2023-04-06T04:59:31;2.40;65.80
2539;DHT22;1280;49.760;9.664;2023-04-06T05:02:17;2.40;65.90
2539;DHT22;1280;49.760;9.664;2023-04-06T05:05:17;2.40;66.00
2539;DHT22;1280;49.760;9.664;2023-04-06T05:07:50;2.40;66.20
2539;DHT22;1280;49.760;9.664;2023-04-06T05:10:56;2.40;66.20
2539;DHT22;1280;49.760;9.664;2023-04-06T05:13:48;2.40;66.20
2539;DHT22;1280;49.760;9.664;2023-04-06T05:16:42;2.50;66.30
2539;DHT22;1280;49.760;9.664;2023-04-06T05:19:38;2.50;66.20
2539;DHT22;1280;49.760;9.664;2023-04-06T05:22:08;2.70;67.80
2539;DHT22;1280;49.760;9.664;2023-04-06T05:24:53;3.50;68.60
2539;DHT22;1280;49.760;9.664;2023-04-06T05:27:28;3.90;66.50
2539;DHT22;1280;49.760;9.664;2023-04-06T05:30:29;3.90;65.60
2539;DHT22;1280;49.760;9.664;2023-04-06T05:33:03;3.70;65.20
2539;DHT22;1280;49.760;9.664;2023-04-06T05:35:58;3.40;65.10
2539;DHT22;1280;49.760;9.664;2023-04-06T05:38:41;3.30;65.20
2539;DHT22;1280;49.760;9.664;2023-04-06T05:41:40;3.20;65.40
2539;DHT22;1280;49.760;9.664;2023-04-06T05:44:33;3.10;65.50
2539;DHT22;1280;49.760;9.664;2023-04-06T05:47:27;3.00;65.70
2539;DHT22;1280;49.760;9.664;2023-04-06T05:50:17;3.00;65.70
2539;DHT22;1280;49.760;9.664;2023-04-06T05:53:16;3.00;65.80
2539;DHT22;1280;49.760;9.664;2023-04-06T05:56:11;3.00;65.90
2539;DHT22;1280;49.760;9.664;2023-04-06T05:59:05;3.00;65.90
2539;DHT22;1280;49.760;9.664;2023-04-06T06:01:35;3.00;66.00
2539;DHT22;1280;49.760;9.664;2023-04-06T06:04:11;3.00;65.90
2539;DHT22;1280;49.760;9.664;2023-04-06T06:07:00;3.00;65.90
2539;DHT22;1280;49.760;9.664;2023-04-06T06:10:11;2.90;66.00
2539;DHT22;1280;49.760;9.664;2023-04-06T06:12:58;3.00;66.10
2539;DHT22;1280;49.760;9.664;2023-04-06T06:15:46;3.00;66.20
2539;DHT22;1280;49.760;9.664;2023-04-06T06:18:22;3.00;66.20
2539;DHT22;1280;49.760;9.664;2023-04-06T06:20:55;3.10;66.20
2539;DHT22;1280;49.760;9.664;2023-04-06T06:23:32;3.10;66.30
2539;DHT22;1280;49.760;9.664;2023-04-06T06:26:04;3.10;66.30
2539;DHT22;1280;49.760;9.664;2023-04-06T06:28:36;3.20;66.40
2539;DHT22;1280;49.760;9.664;2023-04-06T06:31:18;3.20;66.50
2539;DHT22;1280;49.760;9.664;2023-04-06T06:33:51;3.20;66.60
2539;DHT22;1280;49.760;9.664;2023-04-06T06:36:33;3.30;66.60
2539;DHT22;1280;49.760;9.664;2023-04-06T06:39:11;3.30;66.70
2539;DHT22;1280;49.760;9.664;2023-04-06T06:41:44;3.40;66.80
2539;DHT22;1280;49.760;9.664;2023-04-06T06:44:24;3.40;66.90
2539;DHT22;1280;49.760;9.664;2023-04-06T06:47:12;3.50;66.90
2539;DHT22;1280;49.760;9.664;2023-04-06T06:49:44;3.50;67.00
2539;DHT22;1280;49.760;9.664;2023-04-06T06:52:22;3.60;67.00
2539;DHT22;1280;49.760;9.664;2023-04-06T06:55:02;3.60;67.10
2539;DHT22;1280;49.760;9.664;2023-04-06T06:57:43;3.70;67.10
2539;DHT22;1280;49.760;9.664;2023-04-06T07:00:25;3.70;67.30
2539;DHT22;1280;49.760;9.664;2023-04-06T07:03:19;3.80;67.20
2539;DHT22;1280;49.760;9.664;2023-04-06T07:05:55;3.80;67.20
2539;DHT22;1280;49.760;9.664;2023-04-06T07:08:27;3.80;67.30
2539;DHT22;1280;49.760;9.664;2023-04-06T07:10:59;3.90;67.30
2539;DHT22;1280;49.760;9.664;2023-04-06T07:13:41;4.00;67.40
2539;DHT22;1280;49.760;9.664;2023-04-06T07:16:21;4.00;67.40
2539;DHT22;1280;49.760;9.664;2023-04-06T07:19:04;4.00;67.50
2539;DHT22;1280;49.760;9.664;2023-04-06T07:21:36;4.10;67.60
2539;DHT22;1280;49.760;9.664;2023-04-06T07:24:10;4.10;67.60
2539;DHT22;1280;49.760;9.664;2023-04-06T07:26:45;4.10;67.60
2539;DHT22;1280;49.760;9.664;2023-04-06T07:29:18;4.20;67.60
2539;DHT22;1280;49.760;9.664;2023-04-06T07:31:55;4.20;67.60
2539;DHT22;1280;49.760;9.664;2023-04-06T07:34:48;4.20;67.70
2539;DHT22;1280;49.760;9.664;2023-04-06T07:37:25;4.30;67.80
2539;DHT22;1280;49.760;9.664;2023-04-06T07:39:58;4.40;67.80
2539;DHT22;1280;49.760;9.664;2023-04-06T07:42:34;4.40;67.70
2539;DHT22;1280;49.760;9.664;2023-04-06T07:45:13;4.50;67.80
2539;DHT22;1280;49.760;9.664;2023-04-06T07:47:51;4.60;67.80
2539;DHT22;1280;49.760;9.664;2023-04-06T07:50:40;4.70;67.70
2539;DHT22;1280;49.760;9.664;2023-04-06T07:53:12;4.80;67.80
2539;DHT22;1280;49.760;9.664;2023-04-06T07:55:47;4.80;67.80
2539;DHT22;1280;49.760;9.664;2023-04-06T07:58:17;4.90;67.70
2539;DHT22;1280;49.760;9.664;2023-04-06T08:00:54;4.90;67.60
2539;DHT22;1280;49.760;9.664;2023-04-06T08:03:25;5.00;67.70
2539;DHT22;1280;49.760;9.664;2023-04-06T08:06:02;5.00;67.60
2539;DHT22;1280;49.760;9.664;2023-04-06T08:08:38;5.10;67.60
2539;DHT22;1280;49.760;9.664;2023-04-06T08:11:12;5.10;67.80
2539;DHT22;1280;49.760;9.664;2023-04-06T08:13:44;5.20;67.80
2539;DHT22;1280;49.760;9.664;2023-04-06T08:16:21;5.30;67.70
2539;DHT22;1280;49.760;9.664;2023-04-06T08:18:59;5.40;67.70
2539;DHT22;1280;49.760;9.664;2023-04-06T08:21:34;5.50;67.70
2539;DHT22;1280;49.760;9.664;2023-04-06T08:24:11;5.60;67.70
2539;DHT22;1280;49.760;9.664;2023-04-06T08:26:49;5.70;67.70
2539;DHT22;1280;49.760;9.664;2023-04-06T08:29:29;5.80;67.70
2539;DHT22;1280;49.760;9.664;2023-04-06T08:32:11;5.80;67.70
2539;DHT22;1280;49.760;9.664;2023-04-06T08:34:41;6.00;67.60
2539;DHT22;1280;49.760;9.664;2023-04-06T08:37:17;6.00;67.60
2539;DHT22;1280;49.760;9.664;2023-04-06T08:39:49;6.10;67.50
2539;DHT22;1280;49.760;9.664;2023-04-06T08:42:20;6.20;67.60
2539;DHT22;1280;49.760;9.664;2023-04-06T08:44:53;6.30;67.50
2539;DHT22;1280;49.760;9.664;2023-04-06T08:47:28;6.40;67.50
2539;DHT22;1280;49.760;9.664;2023-04-06T08:50:06;6.50;67.50
2539;DHT22;1280;49.760;9.664;2023-04-06T08:52:46;6.60;67.30
2539;DHT22;1280;49.760;9.664;2023-04-06T08:55:20;6.70;67.20
2539;DHT22;1280;49.760;9.664;2023-04-06T08:57:54;6.80;67.10
2539;DHT22;1280;49.760;9.664;2023-04-06T09:00:30;6.80;67.10
2539;DHT22;1280;49.760;9.664;2023-04-06T09:03:12;6.90;67.10
2539;DHT22;1280;49.760;9.664;2023-04-06T09:05:46;7.00;67.00
2539;DHT22;1280;49.760;9.664;2023-04-06T09:08:27;7.10;66.60
2539;DHT22;1280;49.760;9.664;2023-04-06T09:10:56;7.20;66.50
2539;DHT22;1280;49.760;9.664;2023-04-06T09:13:43;7.30;66.40
2539;DHT22;1280;49.760;9.664;2023-04-06T09:16:19;7.40;66.20
2539;DHT22;1280;49.760;9.664;2023-04-06T09:18:52;7.50;65.90
2539;DHT22;1280;49.760;9.664;2023-04-06T09:21:33;7.60;65.50
2539;DHT22;1280;49.760;9.664;2023-04-06T09:24:08;7.70;65.40
2539;DHT22;1280;49.760;9.664;2023-04-06T09:26:48;7.80;65.20
2539;DHT22;1280;49.760;9.664;2023-04-06T09:29:23;8.00;65.10
2539;DHT22;1280;49.760;9.664;2023-04-06T09:32:03;8.10;64.90
2539;DHT22;1280;49.760;9.664;2023-04-06T09:34:34;8.10;64.70
2539;DHT22;1280;49.760;9.664;2023-04-06T09:37:12;8.10;64.50
2539;DHT22;1280;49.760;9.664;2023-04-06T09:40:01;8.30;64.20
2539;DHT22;1280;49.760;9.664;2023-04-06T09:42:35;8.40;64.00
2539;DHT22;1280;49.760;9.664;2023-04-06T09:45:07;8.50;63.90
2539;DHT22;1280;49.760;9.664;2023-04-06T09:47:37;8.50;63.70
2539;DHT22;1280;49.760;9.664;2023-04-06T09:50:12;8.60;63.60
2539;DHT22;1280;49.760;9.664;2023-04-06T09:52:50;8.50;63.40
2539;DHT22;1280;49.760;9.664;2023-04-06T09:55:33;8.60;63.30
2539;DHT22;1280;49.760;9.664;2023-04-06T09:58:22;8.70;62.70
2539;DHT22;1280;49.760;9.664;2023-04-06T10:01:02;8.80;62.40
2539;DHT22;1280;49.760;9.664;2023-04-06T10:03:38;8.80;61.70
2539;DHT22;1280;49.760;9.664;2023-04-06T10:06:20;8.80;61.70
2539;DHT22;1280;49.760;9.664;2023-04-06T10:09:05;8.90;61.90
2539;DHT22;1280;49.760;9.664;2023-04-06T10:11:38;9.00;61.60
2539;DHT22;1280;49.760;9.664;2023-04-06T10:14:13;9.00;61.30
2539;DHT22;1280;49.760;9.664;2023-04-06T10:16:53;9.10;61.20
2539;DHT22;1280;49.760;9.664;2023-04-06T10:20:06;9.10;60.80
2539;DHT22;1280;49.760;9.664;2023-04-06T10:22:45;9.10;60.70
2539;DHT22;1280;49.760;9.664;2023-04-06T10:25:27;9.10;60.40
2539;DHT22;1280;49.760;9.664;2023-04-06T10:28:12;9.20;60.50
2539;DHT22;1280;49.760;9.664;2023-04-06T10:30:47;9.20;60.20
2539;DHT22;1280;49.760;9.664;2023-04-06T10:33:21;9.20;60.10
2539;DHT22;1280;49.760;9.664;2023-04-06T10:35:52;9.30;60.10
2539;DHT22;1280;49.760;9.664;2023-04-06T10:38:41;9.30;60.10
2539;DHT22;1280;49.760;9.664;2023-04-06T10:41:12;9.40;60.10
2539;DHT22;1280;49.760;9.664;2023-04-06T10:44:04;9.40;59.80
2539;DHT22;1280;49.760;9.664;2023-04-06T10:46:39;9.50;59.60
2539;DHT22;1280;49.760;9.664;2023-04-06T10:49:11;9.50;59.80
2539;DHT22;1280;49.760;9.664;2023-04-06T10:51:50;9.60;59.60
2539;DHT22;1280;49.760;9.664;2023-04-06T10:54:26;9.60;59.30
2539;DHT22;1280;49.760;9.664;2023-04-06T10:57:07;9.70;58.90
2539;DHT22;1280;49.760;9.664;2023-04-06T10:59:43;9.70;58.90
2539;DHT22;1280;49.760;9.664;2023-04-06T11:02:20;9.80;58.70
2539;DHT22;1280;49.760;9.664;2023-04-06T11:04:57;9.80;58.70
2539;DHT22;1280;49.760;9.664;2023-04-06T11:07:29;9.90;58.80
2539;DHT22;1280;49.760;9.664;2023-04-06T11:10:08;9.90;58.80
2539;DHT22;1280;49.760;9.664;2023-04-06T11:12:45;10.00;58.80
2539;DHT22;1280;49.760;9.664;2023-04-06T11:15:34;10.00;58.60
2539;DHT22;1280;49.760;9.664;2023-04-06T11:18:07;10.10;58.00
2539;DHT22;1280;49.760;9.664;2023-04-06T11:20:46;10.10;58.10
2539;DHT22;1280;49.760;9.664;2023-04-06T11:23:25;10.10;58.00
2539;DHT22;1280;49.760;9.664;2023-04-06T11:26:04;10.00;58.00
2539;DHT22;1280;49.760;9.664;2023-04-06T11:28:44;10.00;58.00
2539;DHT22;1280;49.760;9.664;2023-04-06T11:31:15;10.00;58.10
2539;DHT22;1280;49.760;9.664;2023-04-06T11:33:57;10.00;58.00
2539;DHT22;1280;49.760;9.664;2023-04-06T11:36:27;10.10;58.00
2539;DHT22;1280;49.760;9.664;2023-04-06T11:39:08;10.10;58.10
2539;DHT22;1280;49.760;9.664;2023-04-06T11:41:47;10.10;58.10
2539;DHT22;1280;49.760;9.664;2023-04-06T11:44:35;10.20;57.60
2539;DHT22;1280;49.760;9.664;2023-04-06T11:47:16;10.30;57.30
2539;DHT22;1280;49.760;9.664;2023-04-06T11:49:52;10.40;57.20
2539;DHT22;1280;49.760;9.664;2023-04-06T11:52:22;10.50;57.10
2539;DHT22;1280;49.760;9.664;2023-04-06T11:54:55;10.50;57.10
2539;DHT22;1280;49.760;9.664;2023-04-06T11:57:40;10.60;56.70
2539;DHT22;1280;49.760;9.664;2023-04-06T12:00:13;10.60;56.50
2539;DHT22;1280;49.760;9.664;2023-04-06T12:02:52;10.60;56.20
2539;DHT22;1280;49.760;9.664;2023-04-06T12:05:28;10.70;55.90
2539;DHT22;1280;49.760;9.664;2023-04-06T12:08:08;10.60;56.20
2539;DHT22;1280;49.760;9.664;2023-04-06T12:10:48;10.60;56.30
2539;DHT22;1280;49.760;9.664;2023-04-06T12:13:19;10.70;56.30
2539;DHT22;1280;49.760;9.664;2023-04-06T12:15:59;10.70;56.40
2539;DHT22;1280;49.760;9.664;2023-04-06T12:18:37;10.80;56.40
2539;DHT22;1280;49.760;9.664;2023-04-06T12:21:09;10.90;56.50
2539;DHT22;1280;49.760;9.664;2023-04-06T12:23:45;11.00;56.40
2539;DHT22;1280;49.760;9.664;2023-04-06T12:26:21;11.00;56.20
2539;DHT22;1280;49.760;9.664;2023-04-06T12:28:52;11.10;56.30
2539;DHT22;1280;49.760;9.664;2023-04-06T12:31:25;11.10;56.20
2539;DHT22;1280;49.760;9.664;2023-04-06T12:34:04;11.20;55.60
2539;DHT22;1280;49.760;9.664;2023-04-06T12:36:38;11.20;54.80
2539;DHT22;1280;49.760;9.664;2023-04-06T12:39:09;11.30;54.90
2539;DHT22;1280;49.760;9.664;2023-04-06T12:41:45;11.30;54.80
2539;DHT22;1280;49.760;9.664;2023-04-06T12:44:22;11.40;54.60
2539;DHT22;1280;49.760;9.664;2023-04-06T12:47:01;11.30;54.80
2539;DHT22;1280;49.760;9.664;2023-04-06T12:49:41;11.40;54.70
2539;DHT22;1280;49.760;9.664;2023-04-06T12:52:16;11.40;54.80
2539;DHT22;1280;49.760;9.664;2023-04-06T12:54:47;11.50;54.50
2539;DHT22;1280;49.760;9.664;2023-04-06T12:57:19;11.50;54.50
2539;DHT22;1280;49.760;9.664;2023-04-06T12:59:56;11.60;54.30
2539;DHT22;1280;49.760;9.664;2023-04-06T13:02:41;11.70;53.80
2539;DHT22;1280;49.760;9.664;2023-04-06T13:05:24;11.70;53.80
2539;DHT22;1280;49.760;9.664;2023-04-06T13:08:01;11.80;53.90
2539;DHT22;1280;49.760;9.664;2023-04-06T13:10:35;11.80;53.90
2539;DHT22;1280;49.760;9.664;2023-04-06T13:13:24;11.80;53.90
2539;DHT22;1280;49.760;9.664;2023-04-06T13:16:01;11.80;54.20
2539;DHT22;1280;49.760;9.664;2023-04-06T13:18:35;11.70;54.00
2539;DHT22;1280;49.760;9.664;2023-04-06T13:21:16;11.80;53.90
2539;DHT22;1280;49.760;9.664;2023-04-06T13:23:49;11.80;53.40
2539;DHT22;1280;49.760;9.664;2023-04-06T13:26:27;11.70;53.20
2539;DHT22;1280;49.760;9.664;2023-04-06T13:29:01;11.60;53.30
2539;DHT22;1280;49.760;9.664;2023-04-06T13:31:42;11.60;53.20
2539;DHT22;1280;49.760;9.664;2023-04-06T13:34:22;11.60;53.20
2539;DHT22;1280;49.760;9.664;2023-04-06T13:37:02;11.50;53.10
2539;DHT22;1280;49.760;9.664;2023-04-06T13:39:35;11.60;53.10
2539;DHT22;1280;49.760;9.664;2023-04-06T13:42:13;11.60;53.20
2539;DHT22;1280;49.760;9.664;2023-04-06T13:44:43;11.60;53.20
2539;DHT22;1280;49.760;9.664;2023-04-06T13:47:20;11.60;53.10
2539;DHT22;1280;49.760;9.664;2023-04-06T13:50:00;11.70;53.00
2539;DHT22;1280;49.760;9.664;2023-04-06T13:52:44;11.70;52.90
2539;DHT22;1280;49.760;9.664;2023-04-06T13:55:19;11.70;52.90
2539;DHT22;1280;49.760;9.664;2023-04-06T13:57:52;11.80;53.10
2539;DHT22;1280;49.760;9.664;2023-04-06T14:00:26;11.80;52.90
2539;DHT22;1280;49.760;9.664;2023-04-06T14:02:58;11.70;52.90
2539;DHT22;1280;49.760;9.664;2023-04-06T14:05:36;11.70;53.00
2539;DHT22;1280;49.760;9.664;2023-04-06T14:08:12;11.70;52.90
2539;DHT22;1280;49.760;9.664;2023-04-06T14:10:42;11.70;53.00
2539;DHT22;1280;49.760;9.664;2023-04-06T14:13:23;11.70;53.00
2539;DHT22;1280;49.760;9.664;2023-04-06T14:15:58;11.70;53.00
2539;DHT22;1280;49.760;9.664;2023-04-06T14:18:33;11.80;52.50
2539;DHT22;1280;49.760;9.664;2023-04-06T14:21:05;11.80;52.90
2539;DHT22;1280;49.760;9.664;2023-04-06T14:23:44;11.90;52.90
2539;DHT22;1280;49.760;9.664;2023-04-06T14:26:13;11.90;52.90
2539;DHT22;1280;49.760;9.664;2023-04-06T14:28:49;12.00;52.70
2539;DHT22;1280;49.760;9.664;2023-04-06T14:31:23;12.00;52.60
2539;DHT22;1280;49.760;9.664;2023-04-06T14:34:01;12.00;52.50
2539;DHT22;1280;49.760;9.664;2023-04-06T14:36:31;12.00;52.60
2539;DHT22;1280;49.760;9.664;2023-04-06T14:39:23;12.00;52.50
2539;DHT22;1280;49.760;9.664;2023-04-06T14:41:56;12.10;52.50
2539;DHT22;1280;49.760;9.664;2023-04-06T14:44:32;12.10;52.60
2539;DHT22;1280;49.760;9.664;2023-04-06T14:47:03;12.10;52.60
2539;DHT22;1280;49.760;9.664;2023-04-06T14:49:46;12.20;52.60
2539;DHT22;1280;49.760;9.664;2023-04-06T14:52:24;12.30;52.50
2539;DHT22;1280;49.760;9.664;2023-04-06T14:55:04;12.30;52.40
2539;DHT22;1280;49.760;9.664;2023-04-06T14:57:37;12.30;52.60
2539;DHT22;1280;49.760;9.664;2023-04-06T15:00:11;12.40;52.90
2539;DHT22;1280;49.760;9.664;2023-04-06T15:02:41;12.60;52.70
2539;DHT22;1280;49.760;9.664;2023-04-06T15:05:13;12.80;52.50
2539;DHT22;1280;49.760;9.664;2023-04-06T15:07:52;12.90;52.40
2539;DHT22;1280;49.760;9.664;2023-04-06T15:10:29;13.10;52.30
2539;DHT22;1280;49.760;9.664;2023-04-06T15:13:09;13.10;52.20
2539;DHT22;1280;49.760;9.664;2023-04-06T15:15:41;13.20;52.00
2539;DHT22;1280;49.760;9.664;2023-04-06T15:18:15;13.30;51.90
2539;DHT22;1280;49.760;9.664;2023-04-06T15:20:47;13.30;51.80
2539;DHT22;1280;49.760;9.664;2023-04-06T15:23:27;13.40;51.80
2539;DHT22;1280;49.760;9.664;2023-04-06T15:26:08;13.40;51.80
2539;DHT22;1280;49.760;9.664;2023-04-06T15:28:40;13.50;51.70
2539;DHT22;1280;49.760;9.664;2023-04-06T15:31:14;13.60;51.60
2539;DHT22;1280;49.760;9.664;2023-04-06T15:34:03;13.60;51.50
2539;DHT22;1280;49.760;9.664;2023-04-06T15:36:33;13.70;51.50
2539;DHT22;1280;49.760;9.664;2023-04-06T15:39:06;13.70;51.60
2539;DHT22;1280;49.760;9.664;2023-04-06T15:41:43;13.80;51.70
2539;DHT22;1280;49.760;9.664;2023-04-06T15:44:16;13.80;51.50
2539;DHT22;1280;49.760;9.664;2023-04-06T15:46:55;13.80;51.50
2539;DHT22;1280;49.760;9.664;2023-04-06T15:49:29;13.90;51.50
2539;DHT22;1280;49.760;9.664;2023-04-06T15:52:06;13.90;51.40
2539;DHT22;1280;49.760;9.664;2023-04-06T15:54:35;13.90;51.30
2539;DHT22;1280;49.760;9.664;2023-04-06T15:57:12;13.90;51.20
2539;DHT22;1280;49.760;9.664;2023-04-06T15:59:45;13.90;51.10
2539;DHT22;1280;49.760;9.664;2023-04-06T16:02:19;13.90;51.00
2539;DHT22;1280;49.760;9.664;2023-04-06T16:04:55;13.90;51.10
2539;DHT22;1280;49.760;9.664;2023-04-06T16:07:32;13.90;51.10
2539;DHT22;1280;49.760;9.664;2023-04-06T16:10:09;13.80;51.10
2539;DHT22;1280;49.760;9.664;2023-04-06T16:12:54;13.80;51.00
2539;DHT22;1280;49.760;9.664;2023-04-06T16:15:28;13.80;50.90
2539;DHT22;1280;49.760;9.664;2023-04-06T16:18:06;13.70;50.50
2539;DHT22;1280;49.760;9.664;2023-04-06T16:20:42;13.60;50.30
2539;DHT22;1280;49.760;9.664;2023-04-06T16:23:14;13.60;50.40
2539;DHT22;1280;49.760;9.664;2023-04-06T16:25:52;13.60;50.40
2539;DHT22;1280;49.760;9.664;2023-04-06T16:28:45;13.60;50.30
2539;DHT22;1280;49.760;9.664;2023-04-06T16:31:22;13.60;50.20
2539;DHT22;1280;49.760;9.664;2023-04-06T16:33:58;13.70;50.20
2539;DHT22;1280;49.760;9.664;2023-04-06T16:36:30;13.60;50.20
2539;DHT22;1280;49.760;9.664;2023-04-06T16:39:03;13.60;50.20
2539;DHT22;1280;49.760;9.664;2023-04-06T16:41:39;13.60;49.90
2539;DHT22;1280;49.760;9.664;2023-04-06T16:44:14;13.50;49.90
2539;DHT22;1280;49.760;9.664;2023-04-06T16:46:45;13.40;49.50
2539;DHT22;1280;49.760;9.664;2023-04-06T16:49:18;13.40;49.50
2539;DHT22;1280;49.760;9.664;2023-04-06T16:51:57;13.40;49.30
2539;DHT22;1280;49.760;9.664;2023-04-06T16:54:39;13.40;49.40
2539;DHT22;1280;49.760;9.664;2023-04-06T16:57:16;13.30;49.20
2539;DHT22;1280;49.760;9.664;2023-04-06T16:59:57;13.30;49.30
2539;DHT22;1280;49.760;9.664;2023-04-06T17:02:40;13.30;49.40
2539;DHT22;1280;49.760;9.664;2023-04-06T17:05:16;13.30;49.40
2539;DHT22;1280;49.760;9.664;2023-04-06T17:07:53;13.30;49.50
2539;DHT22;1280;49.760;9.664;2023-04-06T17:10:26;13.30;49.60
2539;DHT22;1280;49.760;9.664;2023-04-06T17:13:08;13.20;49.70
2539;DHT22;1280;49.760;9.664;2023-04-06T17:15:53;13.20;49.90
2539;DHT22;1280;49.760;9.664;2023-04-06T17:18:27;13.20;50.00
2539;DHT22;1280;49.760;9.664;2023-04-06T17:21:02;13.10;50.00
2539;DHT22;1280;49.760;9.664;2023-04-06T17:23:32;13.10;50.10
2539;DHT22;1280;49.760;9.664;2023-04-06T17:26:04;13.00;50.30